sensor_id;sensor_type;location;lat;lon;timestamp;P1;durP1;ratioP1;P2;durP2;ratioP2
42036;SDS011;30340;52.004;5.908;2023-05-10T00:02:25;12.27;;;9.90;;
42036;SDS011;30340;52.004;5.908;2023-05-10T00:04:51;14.65;;;11.02;;
42036;SDS011;30340;52.004;5.908;2023-05-10T00:07:17;12.48;;;9.95;;
42036;SDS011;30340;52.004;5.908;2023-05-10T00:09:43;11.13;;;8.73;;
42036;SDS011;30340;52.004;5.908;2023-05-10T00:12:08;13.10;;;10.00;;
42036;SDS011;30340;52.004;5.908;2023-05-10T00:14:34;15.25;;;11.60;;
42036;SDS011;30340;52.004;5.908;2023-05-10T00:17:00;15.90;;;11.77;;
42036;SDS011;30340;52.004;5.908;2023-05-10T00:19:25;14.25;;;10.68;;
42036;SDS011;30340;52.004;5.908;2023-05-10T00:21:51;14.50;;;10.52;;
42036;SDS011;30340;52.004;5.908;2023-05-10T00:24:16;16.60;;;12.13;;
42036;SDS011;30340;52.004;5.908;2023-05-10T00:26:42;17.55;;;12.82;;
42036;SDS011;30340;52.004;5.908;2023-05-10T00:29:08;15.50;;;11.02;;
42036;SDS011;30340;52.004;5.908;2023-05-10T00:31:33;16.95;;;12.35;;
42036;SDS011;30340;52.004;5.908;2023-05-10T00:33:59;18.77;;;13.70;;
42036;SDS011;30340;52.004;5.908;2023-05-10T00:36:24;18.95;;;13.50;;
42036;SDS011;30340;52.004;5.908;2023-05-10T00:38:50;19.40;;;13.85;;
42036;SDS011;30340;52.004;5.908;2023-05-10T00:41:15;21.70;;;14.48;;
42036;SDS011;30340;52.004;5.908;2023-05-10T00:43:41;20.17;;;14.13;;
42036;SDS011;30340;52.004;5.908;2023-05-10T00:46:07;20.40;;;14.50;;
42036;SDS011;30340;52.004;5.908;2023-05-10T00:48:32;21.65;;;14.85;;
42036;SDS011;30340;52.004;5.908;2023-05-10T00:50:58;18.80;;;13.80;;
42036;SDS011;30340;52.004;5.908;2023-05-10T00:53:25;18.35;;;13.50;;
42036;SDS011;30340;52.004;5.908;2023-05-10T00:55:51;21.08;;;15.20;;
42036;SDS011;30340;52.004;5.908;2023-05-10T00:58:17;23.23;;;15.00;;
42036;SDS011;30340;52.004;5.908;2023-05-10T01:00:42;22.05;;;15.65;;
42036;SDS011;30340;52.004;5.908;2023-05-10T01:03:10;22.70;;;15.00;;
42036;SDS011;30340;52.004;5.908;2023-05-10T01:05:36;23.45;;;16.50;;
42036;SDS011;30340;52.004;5.908;2023-05-10T01:08:02;22.42;;;15.35;;
42036;SDS011;30340;52.004;5.908;2023-05-10T01:10:28;22.38;;;15.43;;
42036;SDS011;30340;52.004;5.908;2023-05-10T01:12:54;22.38;;;15.85;;
42036;SDS011;30340;52.004;5.908;2023-05-10T01:15:20;22.63;;;14.88;;
42036;SDS011;30340;52.004;5.908;2023-05-10T01:17:46;23.27;;;16.05;;
42036;SDS011;30340;52.004;5.908;2023-05-10T01:20:13;26.40;;;17.33;;
42036;SDS011;30340;52.004;5.908;2023-05-10T01:25:28;24.10;;;17.08;;
42036;SDS011;30340;52.004;5.908;2023-05-10T01:31:01;23.90;;;16.73;;
42036;SDS011;30340;52.004;5.908;2023-05-10T01:33:45;26.90;;;17.33;;
42036;SDS011;30340;52.004;5.908;2023-05-10T01:36:17;29.75;;;19.65;;
42036;SDS011;30340;52.004;5.908;2023-05-10T01:39:09;29.48;;;18.52;;
42036;SDS011;30340;52.004;5.908;2023-05-10T01:46:51;27.15;;;18.42;;
42036;SDS011;30340;52.004;5.908;2023-05-10T01:49:26;28.00;;;19.02;;
42036;SDS011;30340;52.004;5.908;2023-05-10T01:51:59;27.95;;;18.65;;
42036;SDS011;30340;52.004;5.908;2023-05-10T01:54:31;29.45;;;20.33;;
42036;SDS011;30340;52.004;5.908;2023-05-10T01:57:00;29.73;;;19.33;;
42036;SDS011;30340;52.004;5.908;2023-05-10T01:59:30;28.23;;;19.48;;
42036;SDS011;30340;52.004;5.908;2023-05-10T02:02:04;44.17;;;29.75;;
42036;SDS011;30340;52.004;5.908;2023-05-10T02:04:30;33.42;;;22.70;;
42036;SDS011;30340;52.004;5.908;2023-05-10T02:06:58;30.35;;;21.50;;
42036;SDS011;30340;52.004;5.908;2023-05-10T02:09:23;26.40;;;18.63;;
42036;SDS011;30340;52.004;5.908;2023-05-10T02:11:51;25.83;;;18.23;;
42036;SDS011;30340;52.004;5.908;2023-05-10T02:14:19;28.00;;;19.05;;
42036;SDS011;30340;52.004;5.908;2023-05-10T02:16:46;26.02;;;18.25;;
42036;SDS011;30340;52.004;5.908;2023-05-10T02:19:15;25.80;;;17.50;;
42036;SDS011;30340;52.004;5.908;2023-05-10T02:21:42;24.80;;;16.02;;
42036;SDS011;30340;52.004;5.908;2023-05-10T02:24:09;24.58;;;16.60;;
42036;SDS011;30340;52.004;5.908;2023-05-10T02:26:36;29.65;;;21.40;;
42036;SDS011;30340;52.004;5.908;2023-05-10T02:29:04;26.48;;;18.48;;
42036;SDS011;30340;52.004;5.908;2023-05-10T02:31:32;26.80;;;17.35;;
42036;SDS011;30340;52.004;5.908;2023-05-10T02:33:58;29.25;;;18.63;;
42036;SDS011;30340;52.004;5.908;2023-05-10T02:36:25;29.85;;;19.15;;
42036;SDS011;30340;52.004;5.908;2023-05-10T02:38:52;29.05;;;18.95;;
42036;SDS011;30340;52.004;5.908;2023-05-10T02:41:19;24.10;;;17.15;;
42036;SDS011;30340;52.004;5.908;2023-05-10T02:43:47;28.30;;;18.77;;
42036;SDS011;30340;52.004;5.908;2023-05-10T02:46:15;28.65;;;18.45;;
42036;SDS011;30340;52.004;5.908;2023-05-10T02:48:41;31.48;;;19.27;;
42036;SDS011;30340;52.004;5.908;2023-05-10T02:51:07;29.08;;;19.08;;
42036;SDS011;30340;52.004;5.908;2023-05-10T02:53:35;30.58;;;19.13;;
42036;SDS011;30340;52.004;5.908;2023-05-10T02:56:04;29.80;;;18.55;;
42036;SDS011;30340;52.004;5.908;2023-05-10T02:58:36;37.53;;;23.77;;
42036;SDS011;30340;52.004;5.908;2023-05-10T03:01:01;33.65;;;21.35;;
42036;SDS011;30340;52.004;5.908;2023-05-10T03:03:27;33.38;;;21.77;;
42036;SDS011;30340;52.004;5.908;2023-05-10T03:05:52;32.03;;;20.75;;
42036;SDS011;30340;52.004;5.908;2023-05-10T03:08:22;31.95;;;20.02;;
42036;SDS011;30340;52.004;5.908;2023-05-10T03:10:53;34.53;;;22.90;;
42036;SDS011;30340;52.004;5.908;2023-05-10T03:13:36;32.13;;;19.13;;
42036;SDS011;30340;52.004;5.908;2023-05-10T03:16:10;33.83;;;22.38;;
42036;SDS011;30340;52.004;5.908;2023-05-10T03:19:05;32.05;;;20.00;;
42036;SDS011;30340;52.004;5.908;2023-05-10T03:21:36;32.03;;;19.77;;
42036;SDS011;30340;52.004;5.908;2023-05-10T03:24:07;31.58;;;20.95;;
42036;SDS011;30340;52.004;5.908;2023-05-10T03:26:36;31.77;;;20.35;;
42036;SDS011;30340;52.004;5.908;2023-05-10T03:29:04;33.30;;;21.48;;
42036;SDS011;30340;52.004;5.908;2023-05-10T03:31:31;29.65;;;19.88;;
42036;SDS011;30340;52.004;5.908;2023-05-10T03:33:57;27.35;;;18.15;;
42036;SDS011;30340;52.004;5.908;2023-05-10T03:36:23;28.10;;;18.02;;
42036;SDS011;30340;52.004;5.908;2023-05-10T03:38:48;27.40;;;17.10;;
42036;SDS011;30340;52.004;5.908;2023-05-10T03:41:14;26.42;;;16.70;;
42036;SDS011;30340;52.004;5.908;2023-05-10T03:43:39;30.08;;;18.30;;
42036;SDS011;30340;52.004;5.908;2023-05-10T03:46:06;25.85;;;16.52;;
42036;SDS011;30340;52.004;5.908;2023-05-10T03:48:32;29.25;;;19.50;;
42036;SDS011;30340;52.004;5.908;2023-05-10T03:50:58;27.88;;;19.08;;
42036;SDS011;30340;52.004;5.908;2023-05-10T03:53:23;29.33;;;19.13;;
42036;SDS011;30340;52.004;5.908;2023-05-10T03:55:50;29.42;;;18.77;;
42036;SDS011;30340;52.004;5.908;2023-05-10T03:58:15;28.42;;;19.08;;
42036;SDS011;30340;52.004;5.908;2023-05-10T04:00:41;33.50;;;22.45;;
42036;SDS011;30340;52.004;5.908;2023-05-10T04:03:09;34.03;;;22.10;;
42036;SDS011;30340;52.004;5.908;2023-05-10T04:05:36;35.08;;;23.65;;
42036;SDS011;30340;52.004;5.908;2023-05-10T04:08:02;32.45;;;20.38;;
42036;SDS011;30340;52.004;5.908;2023-05-10T04:10:28;28.38;;;18.90;;
42036;SDS011;30340;52.004;5.908;2023-05-10T04:12:53;30.67;;;20.23;;
42036;SDS011;30340;52.004;5.908;2023-05-10T04:15:19;32.78;;;20.27;;
42036;SDS011;30340;52.004;5.908;2023-05-10T04:17:45;30.27;;;19.92;;
42036;SDS011;30340;52.004;5.908;2023-05-10T04:20:10;29.30;;;19.23;;
42036;SDS011;30340;52.004;5.908;2023-05-10T04:22:36;32.47;;;19.58;;
42036;SDS011;30340;52.004;5.908;2023-05-10T04:25:02;32.92;;;21.25;;
42036;SDS011;30340;52.004;5.908;2023-05-10T04:27:29;29.90;;;19.67;;
42036;SDS011;30340;52.004;5.908;2023-05-10T04:29:55;33.30;;;21.00;;
42036;SDS011;30340;52.004;5.908;2023-05-10T04:32:20;33.45;;;22.33;;
42036;SDS011;30340;52.004;5.908;2023-05-10T04:34:46;29.33;;;19.45;;
42036;SDS011;30340;52.004;5.908;2023-05-10T04:37:12;31.10;;;20.20;;
42036;SDS011;30340;52.004;5.908;2023-05-10T04:39:37;30.58;;;20.80;;
42036;SDS011;30340;52.004;5.908;2023-05-10T04:42:03;29.70;;;19.23;;
42036;SDS011;30340;52.004;5.908;2023-05-10T04:44:30;28.38;;;18.48;;
42036;SDS011;30340;52.004;5.908;2023-05-10T04:46:59;32.42;;;20.52;;
42036;SDS011;30340;52.004;5.908;2023-05-10T04:49:24;34.58;;;19.77;;
42036;SDS011;30340;52.004;5.908;2023-05-10T04:51:50;32.25;;;20.42;;
42036;SDS011;30340;52.004;5.908;2023-05-10T04:54:15;31.27;;;19.92;;
42036;SDS011;30340;52.004;5.908;2023-05-10T04:56:41;33.53;;;20.50;;
42036;SDS011;30340;52.004;5.908;2023-05-10T04:59:07;30.85;;;19.02;;
42036;SDS011;30340;52.004;5.908;2023-05-10T05:01:32;33.13;;;20.17;;
42036;SDS011;30340;52.004;5.908;2023-05-10T05:03:58;34.05;;;19.85;;
42036;SDS011;30340;52.004;5.908;2023-05-10T05:06:24;36.10;;;21.35;;
42036;SDS011;30340;52.004;5.908;2023-05-10T05:08:50;35.80;;;21.27;;
42036;SDS011;30340;52.004;5.908;2023-05-10T05:11:16;36.03;;;22.00;;
42036;SDS011;30340;52.004;5.908;2023-05-10T05:13:42;35.88;;;20.40;;
42036;SDS011;30340;52.004;5.908;2023-05-10T05:16:08;30.77;;;18.08;;
42036;SDS011;30340;52.004;5.908;2023-05-10T05:18:33;32.40;;;18.23;;
42036;SDS011;30340;52.004;5.908;2023-05-10T05:20:59;29.25;;;18.10;;
42036;SDS011;30340;52.004;5.908;2023-05-10T05:23:25;35.00;;;19.05;;
42036;SDS011;30340;52.004;5.908;2023-05-10T05:25:51;30.52;;;18.10;;
42036;SDS011;30340;52.004;5.908;2023-05-10T05:28:18;30.75;;;18.13;;
42036;SDS011;30340;52.004;5.908;2023-05-10T05:30:44;29.40;;;17.75;;
42036;SDS011;30340;52.004;5.908;2023-05-10T05:33:10;24.95;;;15.25;;
42036;SDS011;30340;52.004;5.908;2023-05-10T05:35:36;28.33;;;17.23;;
42036;SDS011;30340;52.004;5.908;2023-05-10T05:38:01;30.02;;;18.00;;
42036;SDS011;30340;52.004;5.908;2023-05-10T05:40:27;25.67;;;16.08;;
42036;SDS011;30340;52.004;5.908;2023-05-10T05:42:53;28.45;;;18.50;;
42036;SDS011;30340;52.004;5.908;2023-05-10T05:45:18;31.63;;;19.40;;
42036;SDS011;30340;52.004;5.908;2023-05-10T05:47:44;33.95;;;21.08;;
42036;SDS011;30340;52.004;5.908;2023-05-10T05:50:09;34.15;;;19.80;;
42036;SDS011;30340;52.004;5.908;2023-05-10T05:52:35;27.60;;;17.80;;
42036;SDS011;30340;52.004;5.908;2023-05-10T05:55:01;30.98;;;18.77;;
42036;SDS011;30340;52.004;5.908;2023-05-10T05:57:26;32.45;;;18.58;;
42036;SDS011;30340;52.004;5.908;2023-05-10T05:59:52;34.10;;;20.42;;
42036;SDS011;30340;52.004;5.908;2023-05-10T06:02:17;34.95;;;20.10;;
42036;SDS011;30340;52.004;5.908;2023-05-10T06:04:43;33.38;;;18.85;;
42036;SDS011;30340;52.004;5.908;2023-05-10T06:07:09;28.73;;;16.90;;
42036;SDS011;30340;52.004;5.908;2023-05-10T06:09:34;32.92;;;18.98;;
42036;SDS011;30340;52.004;5.908;2023-05-10T06:12:00;33.55;;;20.25;;
42036;SDS011;30340;52.004;5.908;2023-05-10T06:14:26;29.30;;;17.73;;
42036;SDS011;30340;52.004;5.908;2023-05-10T06:16:52;33.88;;;19.65;;
42036;SDS011;30340;52.004;5.908;2023-05-10T06:19:17;37.97;;;21.73;;
42036;SDS011;30340;52.004;5.908;2023-05-10T06:21:43;37.80;;;20.65;;
42036;SDS011;30340;52.004;5.908;2023-05-10T06:24:08;38.05;;;20.88;;
42036;SDS011;30340;52.004;5.908;2023-05-10T06:26:34;37.55;;;20.35;;
42036;SDS011;30340;52.004;5.908;2023-05-10T06:29:01;37.92;;;21.50;;
42036;SDS011;30340;52.004;5.908;2023-05-10T06:31:27;32.13;;;18.08;;
42036;SDS011;30340;52.004;5.908;2023-05-10T06:33:53;29.25;;;17.33;;
42036;SDS011;30340;52.004;5.908;2023-05-10T06:36:18;35.38;;;19.27;;
42036;SDS011;30340;52.004;5.908;2023-05-10T06:38:44;35.30;;;19.95;;
42036;SDS011;30340;52.004;5.908;2023-05-10T06:41:09;33.38;;;19.50;;
42036;SDS011;30340;52.004;5.908;2023-05-10T06:43:35;35.58;;;19.90;;
42036;SDS011;30340;52.004;5.908;2023-05-10T06:46:01;33.70;;;18.67;;
42036;SDS011;30340;52.004;5.908;2023-05-10T06:48:27;31.10;;;18.40;;
42036;SDS011;30340;52.004;5.908;2023-05-10T06:50:53;36.40;;;19.55;;
42036;SDS011;30340;52.004;5.908;2023-05-10T06:53:18;31.15;;;18.25;;
42036;SDS011;30340;52.004;5.908;2023-05-10T06:55:44;30.13;;;17.00;;
42036;SDS011;30340;52.004;5.908;2023-05-10T06:58:09;36.80;;;22.38;;
42036;SDS011;30340;52.004;5.908;2023-05-10T07:00:35;33.70;;;19.45;;
42036;SDS011;30340;52.004;5.908;2023-05-10T07:03:05;33.03;;;19.17;;
42036;SDS011;30340;52.004;5.908;2023-05-10T07:05:31;32.65;;;18.10;;
42036;SDS011;30340;52.004;5.908;2023-05-10T07:07:56;33.45;;;18.35;;
42036;SDS011;30340;52.004;5.908;2023-05-10T07:10:22;32.47;;;18.60;;
42036;SDS011;30340;52.004;5.908;2023-05-10T07:12:48;39.28;;;22.13;;
42036;SDS011;30340;52.004;5.908;2023-05-10T07:15:13;41.75;;;24.40;;
42036;SDS011;30340;52.004;5.908;2023-05-10T07:17:39;37.28;;;21.35;;
42036;SDS011;30340;52.004;5.908;2023-05-10T07:20:04;35.05;;;20.52;;
42036;SDS011;30340;52.004;5.908;2023-05-10T07:22:31;31.73;;;17.90;;
42036;SDS011;30340;52.004;5.908;2023-05-10T07:24:56;33.95;;;21.38;;
42036;SDS011;30340;52.004;5.908;2023-05-10T07:27:22;35.00;;;21.85;;
42036;SDS011;30340;52.004;5.908;2023-05-10T07:29:47;33.65;;;19.45;;
42036;SDS011;30340;52.004;5.908;2023-05-10T07:32:13;36.30;;;21.67;;
42036;SDS011;30340;52.004;5.908;2023-05-10T07:34:39;35.53;;;21.88;;
42036;SDS011;30340;52.004;5.908;2023-05-10T07:37:04;36.92;;;21.83;;
42036;SDS011;30340;52.004;5.908;2023-05-10T07:39:31;36.78;;;21.35;;
42036;SDS011;30340;52.004;5.908;2023-05-10T07:41:56;38.50;;;21.88;;
42036;SDS011;30340;52.004;5.908;2023-05-10T07:44:22;32.22;;;19.23;;
42036;SDS011;30340;52.004;5.908;2023-05-10T07:46:48;27.65;;;17.67;;
42036;SDS011;30340;52.004;5.908;2023-05-10T07:49:13;29.73;;;18.60;;
42036;SDS011;30340;52.004;5.908;2023-05-10T07:51:39;29.55;;;17.65;;
42036;SDS011;30340;52.004;5.908;2023-05-10T07:54:07;31.77;;;19.17;;
42036;SDS011;30340;52.004;5.908;2023-05-10T07:56:32;30.70;;;18.45;;
42036;SDS011;30340;52.004;5.908;2023-05-10T07:58:58;35.78;;;20.05;;
42036;SDS011;30340;52.004;5.908;2023-05-10T08:01:25;26.52;;;15.93;;
42036;SDS011;30340;52.004;5.908;2023-05-10T08:03:50;30.85;;;18.63;;
42036;SDS011;30340;52.004;5.908;2023-05-10T08:06:18;33.13;;;19.80;;
42036;SDS011;30340;52.004;5.908;2023-05-10T08:08:45;32.88;;;19.10;;
42036;SDS011;30340;52.004;5.908;2023-05-10T08:11:14;28.60;;;18.00;;
42036;SDS011;30340;52.004;5.908;2023-05-10T08:13:43;31.85;;;18.17;;
42036;SDS011;30340;52.004;5.908;2023-05-10T08:16:12;37.65;;;21.35;;
42036;SDS011;30340;52.004;5.908;2023-05-10T08:18:38;31.92;;;18.95;;
42036;SDS011;30340;52.004;5.908;2023-05-10T08:21:04;26.20;;;15.95;;
42036;SDS011;30340;52.004;5.908;2023-05-10T08:23:30;29.88;;;17.25;;
42036;SDS011;30340;52.004;5.908;2023-05-10T08:25:55;28.33;;;16.73;;
42036;SDS011;30340;52.004;5.908;2023-05-10T08:28:21;27.02;;;16.70;;
42036;SDS011;30340;52.004;5.908;2023-05-10T08:30:46;29.20;;;16.95;;
42036;SDS011;30340;52.004;5.908;2023-05-10T08:33:12;28.10;;;17.98;;
42036;SDS011;30340;52.004;5.908;2023-05-10T08:35:38;29.67;;;19.00;;
42036;SDS011;30340;52.004;5.908;2023-05-10T08:38:03;28.35;;;17.70;;
42036;SDS011;30340;52.004;5.908;2023-05-10T08:40:29;29.52;;;17.25;;
42036;SDS011;30340;52.004;5.908;2023-05-10T08:42:58;26.80;;;16.23;;
42036;SDS011;30340;52.004;5.908;2023-05-10T08:45:32;27.50;;;15.05;;
42036;SDS011;30340;52.004;5.908;2023-05-10T08:48:01;23.40;;;14.75;;
42036;SDS011;30340;52.004;5.908;2023-05-10T08:50:27;23.42;;;13.80;;
42036;SDS011;30340;52.004;5.908;2023-05-10T08:52:55;20.42;;;13.45;;
42036;SDS011;30340;52.004;5.908;2023-05-10T08:55:24;21.23;;;13.48;;
42036;SDS011;30340;52.004;5.908;2023-05-10T08:57:50;22.42;;;13.35;;
42036;SDS011;30340;52.004;5.908;2023-05-10T09:00:16;18.98;;;12.05;;
42036;SDS011;30340;52.004;5.908;2023-05-10T09:02:43;19.88;;;12.50;;
42036;SDS011;30340;52.004;5.908;2023-05-10T09:05:10;20.95;;;12.70;;
42036;SDS011;30340;52.004;5.908;2023-05-10T09:07:37;18.85;;;12.55;;
42036;SDS011;30340;52.004;5.908;2023-05-10T09:10:02;21.55;;;13.15;;
42036;SDS011;30340;52.004;5.908;2023-05-10T09:12:29;17.60;;;11.25;;
42036;SDS011;30340;52.004;5.908;2023-05-10T09:14:55;16.95;;;12.02;;
42036;SDS011;30340;52.004;5.908;2023-05-10T09:17:23;14.48;;;10.48;;
42036;SDS011;30340;52.004;5.908;2023-05-10T09:19:49;13.95;;;9.95;;
42036;SDS011;30340;52.004;5.908;2023-05-10T09:22:15;15.70;;;10.00;;
42036;SDS011;30340;52.004;5.908;2023-05-10T09:24:42;13.95;;;9.73;;
42036;SDS011;30340;52.004;5.908;2023-05-10T09:27:10;13.60;;;9.50;;
42036;SDS011;30340;52.004;5.908;2023-05-10T09:29:42;12.70;;;8.27;;
42036;SDS011;30340;52.004;5.908;2023-05-10T09:32:08;12.38;;;8.63;;
42036;SDS011;30340;52.004;5.908;2023-05-10T09:34:33;11.52;;;7.95;;
42036;SDS011;30340;52.004;5.908;2023-05-10T09:37:01;10.55;;;6.93;;
42036;SDS011;30340;52.004;5.908;2023-05-10T09:39:31;12.38;;;7.45;;
42036;SDS011;30340;52.004;5.908;2023-05-10T09:42:04;10.70;;;7.68;;
42036;SDS011;30340;52.004;5.908;2023-05-10T09:44:31;10.10;;;7.00;;
42036;SDS011;30340;52.004;5.908;2023-05-10T09:46:57;8.18;;;5.85;;
42036;SDS011;30340;52.004;5.908;2023-05-10T09:49:23;9.25;;;6.57;;
42036;SDS011;30340;52.004;5.908;2023-05-10T09:52:05;9.02;;;6.65;;
42036;SDS011;30340;52.004;5.908;2023-05-10T09:54:31;10.52;;;7.25;;
42036;SDS011;30340;52.004;5.908;2023-05-10T09:56:58;11.13;;;7.75;;
42036;SDS011;30340;52.004;5.908;2023-05-10T09:59:25;9.18;;;6.78;;
42036;SDS011;30340;52.004;5.908;2023-05-10T10:01:52;9.48;;;6.95;;
42036;SDS011;30340;52.004;5.908;2023-05-10T10:04:20;8.50;;;6.03;;
42036;SDS011;30340;52.004;5.908;2023-05-10T10:06:46;9.63;;;6.70;;
42036;SDS011;30340;52.004;5.908;2023-05-10T10:09:27;10.50;;;7.07;;
42036;SDS011;30340;52.004;5.908;2023-05-10T10:11:53;11.30;;;7.40;;
42036;SDS011;30340;52.004;5.908;2023-05-10T10:14:19;8.85;;;6.35;;
42036;SDS011;30340;52.004;5.908;2023-05-10T10:16:46;9.80;;;6.60;;
42036;SDS011;30340;52.004;5.908;2023-05-10T10:19:12;9.45;;;6.65;;
42036;SDS011;30340;52.004;5.908;2023-05-10T10:21:38;10.25;;;7.55;;
42036;SDS011;30340;52.004;5.908;2023-05-10T10:24:03;8.60;;;6.43;;
42036;SDS011;30340;52.004;5.908;2023-05-10T10:26:30;11.02;;;6.88;;
42036;SDS011;30340;52.004;5.908;2023-05-10T10:34:42;9.73;;;6.88;;
42036;SDS011;30340;52.004;5.908;2023-05-10T10:37:08;9.52;;;7.00;;
42036;SDS011;30340;52.004;5.908;2023-05-10T10:39:34;11.23;;;8.02;;
42036;SDS011;30340;52.004;5.908;2023-05-10T10:42:01;9.38;;;7.07;;
42036;SDS011;30340;52.004;5.908;2023-05-10T10:52:14;12.90;;;8.27;;
42036;SDS011;30340;52.004;5.908;2023-05-10T10:57:53;10.70;;;7.50;;
42036;SDS011;30340;52.004;5.908;2023-05-10T11:08:41;10.57;;;7.63;;
42036;SDS011;30340;52.004;5.908;2023-05-10T11:11:06;10.25;;;7.70;;
42036;SDS011;30340;52.004;5.908;2023-05-10T11:13:42;9.15;;;7.05;;
42036;SDS011;30340;52.004;5.908;2023-05-10T11:16:39;9.43;;;7.10;;
42036;SDS011;30340;52.004;5.908;2023-05-10T11:19:09;10.35;;;7.40;;
42036;SDS011;30340;52.004;5.908;2023-05-10T11:21:46;10.88;;;7.80;;
42036;SDS011;30340;52.004;5.908;2023-05-10T11:24:13;11.52;;;8.45;;
42036;SDS011;30340;52.004;5.908;2023-05-10T11:26:40;9.68;;;7.65;;
42036;SDS011;30340;52.004;5.908;2023-05-10T11:29:06;9.43;;;7.13;;
42036;SDS011;30340;52.004;5.908;2023-05-10T11:31:32;9.45;;;6.82;;
42036;SDS011;30340;52.004;5.908;2023-05-10T11:33:58;8.18;;;6.65;;
42036;SDS011;30340;52.004;5.908;2023-05-10T11:36:27;10.57;;;7.72;;
42036;SDS011;30340;52.004;5.908;2023-05-10T11:38:54;8.27;;;6.30;;
42036;SDS011;30340;52.004;5.908;2023-05-10T11:41:22;9.63;;;6.80;;
42036;SDS011;30340;52.004;5.908;2023-05-10T11:43:52;10.05;;;7.50;;
42036;SDS011;30340;52.004;5.908;2023-05-10T11:46:19;8.15;;;6.53;;
42036;SDS011;30340;52.004;5.908;2023-05-10T11:48:48;9.55;;;6.47;;
42036;SDS011;30340;52.004;5.908;2023-05-10T11:51:19;8.30;;;6.18;;
42036;SDS011;30340;52.004;5.908;2023-05-10T11:53:49;9.30;;;6.38;;
42036;SDS011;30340;52.004;5.908;2023-05-10T11:56:15;7.90;;;5.50;;
42036;SDS011;30340;52.004;5.908;2023-05-10T11:58:41;8.23;;;6.20;;
42036;SDS011;30340;52.004;5.908;2023-05-10T12:01:07;8.57;;;5.68;;
42036;SDS011;30340;52.004;5.908;2023-05-10T12:03:34;9.15;;;6.25;;
42036;SDS011;30340;52.004;5.908;2023-05-10T12:06:00;7.72;;;5.85;;
42036;SDS011;30340;52.004;5.908;2023-05-10T12:08:27;7.50;;;5.20;;
42036;SDS011;30340;52.004;5.908;2023-05-10T12:11:03;7.85;;;5.20;;
42036;SDS011;30340;52.004;5.908;2023-05-10T12:13:38;6.70;;;5.13;;
42036;SDS011;30340;52.004;5.908;2023-05-10T12:18:50;8.15;;;6.05;;
42036;SDS011;30340;52.004;5.908;2023-05-10T12:21:17;6.97;;;5.18;;
42036;SDS011;30340;52.004;5.908;2023-05-10T12:23:45;5.88;;;4.60;;
42036;SDS011;30340;52.004;5.908;2023-05-10T12:26:12;5.97;;;4.57;;
42036;SDS011;30340;52.004;5.908;2023-05-10T12:28:38;6.78;;;5.13;;
42036;SDS011;30340;52.004;5.908;2023-05-10T12:31:07;7.20;;;5.20;;
42036;SDS011;30340;52.004;5.908;2023-05-10T12:33:36;7.38;;;4.88;;
42036;SDS011;30340;52.004;5.908;2023-05-10T12:36:04;6.35;;;5.32;;
42036;SDS011;30340;52.004;5.908;2023-05-10T12:38:37;6.50;;;5.10;;
42036;SDS011;30340;52.004;5.908;2023-05-10T12:41:05;5.50;;;4.40;;
42036;SDS011;30340;52.004;5.908;2023-05-10T12:43:32;5.93;;;4.50;;
42036;SDS011;30340;52.004;5.908;2023-05-10T12:46:03;6.28;;;4.22;;
42036;SDS011;30340;52.004;5.908;2023-05-10T12:48:40;5.83;;;4.20;;
42036;SDS011;30340;52.004;5.908;2023-05-10T12:51:07;5.50;;;4.03;;
42036;SDS011;30340;52.004;5.908;2023-05-10T12:53:34;5.72;;;4.18;;
42036;SDS011;30340;52.004;5.908;2023-05-10T12:56:00;6.90;;;5.10;;
42036;SDS011;30340;52.004;5.908;2023-05-10T12:58:25;6.03;;;4.70;;
42036;SDS011;30340;52.004;5.908;2023-05-10T13:00:51;7.25;;;5.00;;
42036;SDS011;30340;52.004;5.908;2023-05-10T13:03:17;7.03;;;4.95;;
42036;SDS011;30340;52.004;5.908;2023-05-10T13:05:43;6.93;;;5.60;;
42036;SDS011;30340;52.004;5.908;2023-05-10T13:08:08;6.40;;;4.20;;
42036;SDS011;30340;52.004;5.908;2023-05-10T13:10:34;5.97;;;4.38;;
42036;SDS011;30340;52.004;5.908;2023-05-10T13:13:00;5.93;;;4.80;;
42036;SDS011;30340;52.004;5.908;2023-05-10T13:15:25;6.45;;;4.55;;
42036;SDS011;30340;52.004;5.908;2023-05-10T13:17:51;5.60;;;4.10;;
42036;SDS011;30340;52.004;5.908;2023-05-10T13:20:18;5.35;;;3.78;;
42036;SDS011;30340;52.004;5.908;2023-05-10T13:22:43;5.28;;;3.90;;
42036;SDS011;30340;52.004;5.908;2023-05-10T13:25:09;5.45;;;3.50;;
42036;SDS011;30340;52.004;5.908;2023-05-10T13:27:36;5.00;;;3.53;;
42036;SDS011;30340;52.004;5.908;2023-05-10T13:30:02;6.15;;;4.00;;
42036;SDS011;30340;52.004;5.908;2023-05-10T13:32:28;4.97;;;3.72;;
42036;SDS011;30340;52.004;5.908;2023-05-10T13:34:54;4.72;;;3.45;;
42036;SDS011;30340;52.004;5.908;2023-05-10T13:37:20;6.88;;;4.55;;
42036;SDS011;30340;52.004;5.908;2023-05-10T13:39:46;5.28;;;4.10;;
42036;SDS011;30340;52.004;5.908;2023-05-10T13:42:12;4.93;;;4.00;;
42036;SDS011;30340;52.004;5.908;2023-05-10T13:44:37;4.15;;;3.22;;
42036;SDS011;30340;52.004;5.908;2023-05-10T13:47:03;5.75;;;3.70;;
42036;SDS011;30340;52.004;5.908;2023-05-10T13:49:29;6.30;;;4.50;;
42036;SDS011;30340;52.004;5.908;2023-05-10T13:51:55;7.13;;;4.10;;
42036;SDS011;30340;52.004;5.908;2023-05-10T13:54:20;5.00;;;3.97;;
42036;SDS011;30340;52.004;5.908;2023-05-10T13:56:47;6.13;;;4.43;;
42036;SDS011;30340;52.004;5.908;2023-05-10T13:59:13;6.38;;;5.22;;
42036;SDS011;30340;52.004;5.908;2023-05-10T14:01:39;8.27;;;5.43;;
42036;SDS011;30340;52.004;5.908;2023-05-10T14:04:08;7.57;;;5.60;;
42036;SDS011;30340;52.004;5.908;2023-05-10T14:06:35;7.20;;;6.15;;
42036;SDS011;30340;52.004;5.908;2023-05-10T14:09:01;7.90;;;6.40;;
42036;SDS011;30340;52.004;5.908;2023-05-10T14:11:28;7.47;;;6.05;;
42036;SDS011;30340;52.004;5.908;2023-05-10T14:13:53;6.93;;;5.30;;
42036;SDS011;30340;52.004;5.908;2023-05-10T14:16:19;6.60;;;5.43;;
42036;SDS011;30340;52.004;5.908;2023-05-10T14:18:45;6.45;;;5.55;;
42036;SDS011;30340;52.004;5.908;2023-05-10T14:21:11;7.95;;;6.72;;
42036;SDS011;30340;52.004;5.908;2023-05-10T14:23:37;6.70;;;6.00;;
42036;SDS011;30340;52.004;5.908;2023-05-10T14:26:03;7.22;;;5.65;;
42036;SDS011;30340;52.004;5.908;2023-05-10T14:28:28;8.27;;;6.40;;
42036;SDS011;30340;52.004;5.908;2023-05-10T14:30:54;6.80;;;5.72;;
42036;SDS011;30340;52.004;5.908;2023-05-10T14:33:20;7.13;;;5.50;;
42036;SDS011;30340;52.004;5.908;2023-05-10T14:35:46;6.30;;;5.57;;
42036;SDS011;30340;52.004;5.908;2023-05-10T14:38:11;5.82;;;5.15;;
42036;SDS011;30340;52.004;5.908;2023-05-10T14:40:37;6.60;;;5.47;;
42036;SDS011;30340;52.004;5.908;2023-05-10T14:43:03;5.68;;;4.82;;
42036;SDS011;30340;52.004;5.908;2023-05-10T14:45:28;6.78;;;5.60;;
42036;SDS011;30340;52.004;5.908;2023-05-10T14:47:54;6.85;;;5.43;;
42036;SDS011;30340;52.004;5.908;2023-05-10T14:50:19;5.57;;;4.97;;
42036;SDS011;30340;52.004;5.908;2023-05-10T14:52:45;5.75;;;4.90;;
42036;SDS011;30340;52.004;5.908;2023-05-10T14:55:11;5.15;;;4.15;;
42036;SDS011;30340;52.004;5.908;2023-05-10T14:57:36;5.50;;;4.10;;
42036;SDS011;30340;52.004;5.908;2023-05-10T15:00:03;6.00;;;5.18;;
42036;SDS011;30340;52.004;5.908;2023-05-10T15:02:30;5.20;;;4.53;;
42036;SDS011;30340;52.004;5.908;2023-05-10T15:04:56;3.90;;;3.50;;
42036;SDS011;30340;52.004;5.908;2023-05-10T15:07:22;4.10;;;3.08;;
42036;SDS011;30340;52.004;5.908;2023-05-10T15:09:48;3.83;;;3.20;;